sensor_id;sensor_type;location;lat;lon;timestamp;temperature;humidity
4376;DHT22;2202;50.866;12.750;2023-05-29T00:00:46;9.30;88.00
4376;DHT22;2202;50.866;12.750;2023-05-29T00:03:13;9.30;88.00
4376;DHT22;2202;50.866;12.750;2023-05-29T00:05:41;9.30;88.00
4376;DHT22;2202;50.866;12.750;2023-05-29T00:08:08;9.20;87.60
4376;DHT22;2202;50.866;12.750;2023-05-29T00:10:35;9.20;87.60
4376;DHT22;2202;50.866;12.750;2023-05-29T00:13:02;9.20;87.80
4376;DHT22;2202;50.866;12.750;2023-05-29T00:15:29;9.10;87.60
4376;DHT22;2202;50.866;12.750;2023-05-29T00:17:56;9.10;87.60
4376;DHT22;2202;50.866;12.750;2023-05-29T00:20:23;9.10;88.00
4376;DHT22;2202;50.866;12.750;2023-05-29T00:22:52;9.00;88.00
4376;DHT22;2202;50.866;12.750;2023-05-29T00:25:19;9.00;88.00
4376;DHT22;2202;50.866;12.750;2023-05-29T00:27:45;8.90;88.20
4376;DHT22;2202;50.866;12.750;2023-05-29T00:30:12;8.90;88.40
4376;DHT22;2202;50.866;12.750;2023-05-29T00:32:39;8.90;88.40
4376;DHT22;2202;50.866;12.750;2023-05-29T00:35:07;8.90;88.60
4376;DHT22;2202;50.866;12.750;2023-05-29T00:37:35;8.80;88.80
4376;DHT22;2202;50.866;12.750;2023-05-29T00:40:04;8.80;89.00
4376;DHT22;2202;50.866;12.750;2023-05-29T00:42:32;8.70;89.20
4376;DHT22;2202;50.866;12.750;2023-05-29T00:44:59;8.70;89.40
4376;DHT22;2202;50.866;12.750;2023-05-29T00:47:26;8.70;89.60
4376;DHT22;2202;50.866;12.750;2023-05-29T00:49:53;8.70;89.80
4376;DHT22;2202;50.866;12.750;2023-05-29T00:52:22;8.70;90.00
4376;DHT22;2202;50.866;12.750;2023-05-29T00:54:50;8.60;90.10
4376;DHT22;2202;50.866;12.750;2023-05-29T00:57:18;8.60;90.00
4376;DHT22;2202;50.866;12.750;2023-05-29T00:59:46;8.60;89.80
4376;DHT22;2202;50.866;12.750;2023-05-29T01:02:15;8.60;89.60
4376;DHT22;2202;50.866;12.750;2023-05-29T01:04:45;8.60;89.40
4376;DHT22;2202;50.866;12.750;2023-05-29T01:07:12;8.50;89.00
4376;DHT22;2202;50.866;12.750;2023-05-29T01:09:39;8.50;89.00
4376;DHT22;2202;50.866;12.750;2023-05-29T01:12:16;8.50;89.00
4376;DHT22;2202;50.866;12.750;2023-05-29T01:14:55;8.40;89.20
4376;DHT22;2202;50.866;12.750;2023-05-29T01:17:35;8.40;89.40
4376;DHT22;2202;50.866;12.750;2023-05-29T01:20:17;8.40;89.80
4376;DHT22;2202;50.866;12.750;2023-05-29T01:23:06;8.30;90.00
4376;DHT22;2202;50.866;12.750;2023-05-29T01:25:50;8.30;90.00
4376;DHT22;2202;50.866;12.750;2023-05-29T01:28:24;8.30;90.00
4376;DHT22;2202;50.866;12.750;2023-05-29T01:30:54;8.30;90.00
4376;DHT22;2202;50.866;12.750;2023-05-29T01:33:21;8.20;90.20
4376;DHT22;2202;50.866;12.750;2023-05-29T01:35:48;8.20;90.30
4376;DHT22;2202;50.866;12.750;2023-05-29T01:38:14;8.20;90.50
4376;DHT22;2202;50.866;12.750;2023-05-29T01:40:41;8.20;90.50
4376;DHT22;2202;50.866;12.750;2023-05-29T01:43:08;8.10;90.50
4376;DHT22;2202;50.866;12.750;2023-05-29T01:45:38;8.10;90.60
4376;DHT22;2202;50.866;12.750;2023-05-29T01:48:06;8.10;90.60
4376;DHT22;2202;50.866;12.750;2023-05-29T01:50:34;8.10;90.70
4376;DHT22;2202;50.866;12.750;2023-05-29T01:53:01;8.10;90.70
4376;DHT22;2202;50.866;12.750;2023-05-29T01:55:28;8.10;90.50
4376;DHT22;2202;50.866;12.750;2023-05-29T01:57:56;8.00;90.40
4376;DHT22;2202;50.866;12.750;2023-05-29T02:00:23;8.00;90.40
4376;DHT22;2202;50.866;12.750;2023-05-29T02:02:52;8.00;90.30
4376;DHT22;2202;50.866;12.750;2023-05-29T02:05:19;8.00;90.40
4376;DHT22;2202;50.866;12.750;2023-05-29T02:07:47;7.90;90.40
4376;DHT22;2202;50.866;12.750;2023-05-29T02:10:14;7.90;90.50
4376;DHT22;2202;50.866;12.750;2023-05-29T02:12:41;7.90;90.50
4376;DHT22;2202;50.866;12.750;2023-05-29T02:15:08;7.80;90.50
4376;DHT22;2202;50.866;12.750;2023-05-29T02:17:36;7.80;90.60
4376;DHT22;2202;50.866;12.750;2023-05-29T02:20:05;7.80;90.60
4376;DHT22;2202;50.866;12.750;2023-05-29T02:22:33;7.70;90.60
4376;DHT22;2202;50.866;12.750;2023-05-29T02:24:59;7.70;90.60
4376;DHT22;2202;50.866;12.750;2023-05-29T02:27:26;7.70;90.70
4376;DHT22;2202;50.866;12.750;2023-05-29T02:29:53;7.70;90.70
4376;DHT22;2202;50.866;12.750;2023-05-29T02:32:20;7.60;90.80
4376;DHT22;2202;50.866;12.750;2023-05-29T02:34:47;7.60;90.80
4376;DHT22;2202;50.866;12.750;2023-05-29T02:37:16;7.60;90.80
4376;DHT22;2202;50.866;12.750;2023-05-29T02:39:43;7.60;90.80
4376;DHT22;2202;50.866;12.750;2023-05-29T02:42:10;7.60;90.80
4376;DHT22;2202;50.866;12.750;2023-05-29T02:44:37;7.50;90.90
4376;DHT22;2202;50.866;12.750;2023-05-29T02:47:04;7.50;90.90
4376;DHT22;2202;50.866;12.750;2023-05-29T02:49:31;7.40;90.90
4376;DHT22;2202;50.866;12.750;2023-05-29T02:51:58;7.40;91.00
4376;DHT22;2202;50.866;12.750;2023-05-29T02:54:26;7.40;91.10
4376;DHT22;2202;50.866;12.750;2023-05-29T02:56:53;7.40;91.20
4376;DHT22;2202;50.866;12.750;2023-05-29T02:59:20;7.40;91.20
4376;DHT22;2202;50.866;12.750;2023-05-29T03:01:47;7.40;91.20
4376;DHT22;2202;50.866;12.750;2023-05-29T03:04:14;7.30;91.30
4376;DHT22;2202;50.866;12.750;2023-05-29T03:06:42;7.30;91.30
4376;DHT22;2202;50.866;12.750;2023-05-29T03:09:11;7.30;91.30
4376;DHT22;2202;50.866;12.750;2023-05-29T03:11:39;7.30;91.40
4376;DHT22;2202;50.866;12.750;2023-05-29T03:14:06;7.30;91.40
4376;DHT22;2202;50.866;12.750;2023-05-29T03:16:34;7.20;91.60
4376;DHT22;2202;50.866;12.750;2023-05-29T03:19:03;7.20;91.70
4376;DHT22;2202;50.866;12.750;2023-05-29T03:21:31;7.20;91.80
4376;DHT22;2202;50.866;12.750;2023-05-29T03:23:58;7.20;91.80
4376;DHT22;2202;50.866;12.750;2023-05-29T03:26:24;7.20;91.80
4376;DHT22;2202;50.866;12.750;2023-05-29T03:28:53;7.10;92.00
4376;DHT22;2202;50.866;12.750;2023-05-29T03:31:20;7.10;92.10
4376;DHT22;2202;50.866;12.750;2023-05-29T03:33:49;7.20;92.10
4376;DHT22;2202;50.866;12.750;2023-05-29T03:36:16;7.20;92.10
4376;DHT22;2202;50.866;12.750;2023-05-29T03:38:43;7.20;92.10
4376;DHT22;2202;50.866;12.750;2023-05-29T03:41:10;7.20;92.30
4376;DHT22;2202;50.866;12.750;2023-05-29T03:43:37;7.20;92.40
4376;DHT22;2202;50.866;12.750;2023-05-29T03:46:05;7.20;92.40
4376;DHT22;2202;50.866;12.750;2023-05-29T03:48:32;7.20;92.50
4376;DHT22;2202;50.866;12.750;2023-05-29T03:50:59;7.20;92.50
4376;DHT22;2202;50.866;12.750;2023-05-29T03:53:26;7.30;92.70
4376;DHT22;2202;50.866;12.750;2023-05-29T03:55:53;7.30;92.70
4376;DHT22;2202;50.866;12.750;2023-05-29T03:58:20;7.30;92.60
4376;DHT22;2202;50.866;12.750;2023-05-29T04:00:47;7.40;92.60
4376;DHT22;2202;50.866;12.750;2023-05-29T04:03:15;7.40;92.50
4376;DHT22;2202;50.866;12.750;2023-05-29T04:05:42;7.40;92.50
4376;DHT22;2202;50.866;12.750;2023-05-29T04:08:08;7.40;92.50
4376;DHT22;2202;50.866;12.750;2023-05-29T04:10:36;7.50;92.60
4376;DHT22;2202;50.866;12.750;2023-05-29T04:13:03;7.50;92.60
4376;DHT22;2202;50.866;12.750;2023-05-29T04:15:30;7.60;92.50
4376;DHT22;2202;50.866;12.750;2023-05-29T04:17:58;7.60;92.70
4376;DHT22;2202;50.866;12.750;2023-05-29T04:20:26;7.70;92.80
4376;DHT22;2202;50.866;12.750;2023-05-29T04:22:53;7.70;92.90
4376;DHT22;2202;50.866;12.750;2023-05-29T04:25:20;7.80;93.00
4376;DHT22;2202;50.866;12.750;2023-05-29T04:27:47;7.80;93.10
4376;DHT22;2202;50.866;12.750;2023-05-29T04:30:15;7.80;93.20
4376;DHT22;2202;50.866;12.750;2023-05-29T04:32:43;7.90;93.40
4376;DHT22;2202;50.866;12.750;2023-05-29T04:35:10;8.00;93.60
4376;DHT22;2202;50.866;12.750;2023-05-29T04:37:38;8.00;93.70
4376;DHT22;2202;50.866;12.750;2023-05-29T04:40:06;8.10;94.00
4376;DHT22;2202;50.866;12.750;2023-05-29T04:42:34;8.20;94.10
4376;DHT22;2202;50.866;12.750;2023-05-29T04:45:02;8.30;94.10
4376;DHT22;2202;50.866;12.750;2023-05-29T04:47:29;8.40;94.10
4376;DHT22;2202;50.866;12.750;2023-05-29T04:49:58;8.40;94.20
4376;DHT22;2202;50.866;12.750;2023-05-29T04:52:25;8.50;94.30
4376;DHT22;2202;50.866;12.750;2023-05-29T04:54:54;8.60;94.30
4376;DHT22;2202;50.866;12.750;2023-05-29T04:57:22;8.70;94.10
4376;DHT22;2202;50.866;12.750;2023-05-29T04:59:49;8.80;94.10
4376;DHT22;2202;50.866;12.750;2023-05-29T05:02:15;8.90;93.90
4376;DHT22;2202;50.866;12.750;2023-05-29T05:04:42;9.00;93.90
4376;DHT22;2202;50.866;12.750;2023-05-29T05:07:11;9.10;93.70
4376;DHT22;2202;50.866;12.750;2023-05-29T05:09:38;9.30;93.60
4376;DHT22;2202;50.866;12.750;2023-05-29T05:12:07;9.40;93.20
4376;DHT22;2202;50.866;12.750;2023-05-29T05:14:34;9.50;93.00
4376;DHT22;2202;50.866;12.750;2023-05-29T05:17:01;9.60;92.70
4376;DHT22;2202;50.866;12.750;2023-05-29T05:19:28;9.80;92.40
4376;DHT22;2202;50.866;12.750;2023-05-29T05:21:54;9.90;92.00
4376;DHT22;2202;50.866;12.750;2023-05-29T05:24:21;10.00;91.30
4376;DHT22;2202;50.866;12.750;2023-05-29T05:26:48;10.10;90.60
4376;DHT22;2202;50.866;12.750;2023-05-29T05:29:16;10.20;89.80
4376;DHT22;2202;50.866;12.750;2023-05-29T05:31:44;10.40;88.20
4376;DHT22;2202;50.866;12.750;2023-05-29T05:34:11;10.50;87.40
4376;DHT22;2202;50.866;12.750;2023-05-29T05:36:38;10.70;86.20
4376;DHT22;2202;50.866;12.750;2023-05-29T05:39:05;11.00;84.20
4376;DHT22;2202;50.866;12.750;2023-05-29T05:41:31;11.10;84.00
4376;DHT22;2202;50.866;12.750;2023-05-29T05:43:58;11.30;83.60
4376;DHT22;2202;50.866;12.750;2023-05-29T05:46:27;11.50;82.20
4376;DHT22;2202;50.866;12.750;2023-05-29T05:48:54;11.70;77.40
4376;DHT22;2202;50.866;12.750;2023-05-29T05:51:22;11.90;75.00
4376;DHT22;2202;50.866;12.750;2023-05-29T05:53:49;12.00;75.00
4376;DHT22;2202;50.866;12.750;2023-05-29T05:56:16;12.20;74.60
4376;DHT22;2202;50.866;12.750;2023-05-29T05:58:43;12.30;75.60
4376;DHT22;2202;50.866;12.750;2023-05-29T06:01:09;12.40;73.00
4376;DHT22;2202;50.866;12.750;2023-05-29T06:03:38;12.40;75.40
4376;DHT22;2202;50.866;12.750;2023-05-29T06:06:05;12.40;75.40
4376;DHT22;2202;50.866;12.750;2023-05-29T06:08:32;12.50;75.20
4376;DHT22;2202;50.866;12.750;2023-05-29T06:10:59;12.60;72.80
4376;DHT22;2202;50.866;12.750;2023-05-29T06:13:26;12.60;74.60
4376;DHT22;2202;50.866;12.750;2023-05-29T06:15:53;12.60;75.60
4376;DHT22;2202;50.866;12.750;2023-05-29T06:18:19;12.80;74.80
4376;DHT22;2202;50.866;12.750;2023-05-29T06:20:48;12.90;72.40
4376;DHT22;2202;50.866;12.750;2023-05-29T06:23:15;12.90;70.80
4376;DHT22;2202;50.866;12.750;2023-05-29T06:25:43;13.00;72.80
4376;DHT22;2202;50.866;12.750;2023-05-29T06:28:09;13.10;73.80
4376;DHT22;2202;50.866;12.750;2023-05-29T06:30:36;13.20;73.20
4376;DHT22;2202;50.866;12.750;2023-05-29T06:33:03;13.70;80.20
4376;DHT22;2202;50.866;12.750;2023-05-29T06:35:30;14.50;73.80
4376;DHT22;2202;50.866;12.750;2023-05-29T06:37:58;15.00;70.60
4376;DHT22;2202;50.866;12.750;2023-05-29T06:40:25;15.50;68.00
4376;DHT22;2202;50.866;12.750;2023-05-29T06:42:52;16.10;68.20
4376;DHT22;2202;50.866;12.750;2023-05-29T06:45:18;16.20;62.00
4376;DHT22;2202;50.866;12.750;2023-05-29T06:47:45;16.40;63.80
4376;DHT22;2202;50.866;12.750;2023-05-29T06:50:13;16.90;60.80
4376;DHT22;2202;50.866;12.750;2023-05-29T06:52:40;17.20;61.00
4376;DHT22;2202;50.866;12.750;2023-05-29T06:55:08;18.00;66.40
4376;DHT22;2202;50.866;12.750;2023-05-29T06:57:35;18.30;55.70
4376;DHT22;2202;50.866;12.750;2023-05-29T07:00:03;18.00;55.70
4376;DHT22;2202;50.866;12.750;2023-05-29T07:02:31;17.80;55.90
4376;DHT22;2202;50.866;12.750;2023-05-29T07:04:58;17.80;56.20
4376;DHT22;2202;50.866;12.750;2023-05-29T07:07:25;17.80;55.00
4376;DHT22;2202;50.866;12.750;2023-05-29T07:09:51;17.60;56.00
4376;DHT22;2202;50.866;12.750;2023-05-29T07:12:22;17.30;56.70
4376;DHT22;2202;50.866;12.750;2023-05-29T07:14:48;16.90;58.50
4376;DHT22;2202;50.866;12.750;2023-05-29T07:17:15;16.70;58.20
4376;DHT22;2202;50.866;12.750;2023-05-29T07:19:42;16.70;58.70
4376;DHT22;2202;50.866;12.750;2023-05-29T07:22:09;17.00;64.40
4376;DHT22;2202;50.866;12.750;2023-05-29T07:24:36;17.30;56.90
4376;DHT22;2202;50.866;12.750;2023-05-29T07:27:03;17.20;57.30
4376;DHT22;2202;50.866;12.750;2023-05-29T07:29:32;17.00;58.20
4376;DHT22;2202;50.866;12.750;2023-05-29T07:31:59;17.40;58.70
4376;DHT22;2202;50.866;12.750;2023-05-29T07:34:26;17.80;55.90
4376;DHT22;2202;50.866;12.750;2023-05-29T07:36:57;18.00;59.40
4376;DHT22;2202;50.866;12.750;2023-05-29T07:39:24;18.50;53.90
4376;DHT22;2202;50.866;12.750;2023-05-29T07:41:51;18.40;50.70
4376;DHT22;2202;50.866;12.750;2023-05-29T07:44:18;18.90;53.20
4376;DHT22;2202;50.866;12.750;2023-05-29T07:46:46;19.30;53.20
4376;DHT22;2202;50.866;12.750;2023-05-29T07:49:13;19.80;50.20
4376;DHT22;2202;50.866;12.750;2023-05-29T07:51:41;19.90;51.90
4376;DHT22;2202;50.866;12.750;2023-05-29T07:54:07;19.60;49.30
4376;DHT22;2202;50.866;12.750;2023-05-29T07:56:34;19.50;48.90
4376;DHT22;2202;50.866;12.750;2023-05-29T07:59:01;19.50;51.90
4376;DHT22;2202;50.866;12.750;2023-05-29T08:01:28;19.70;47.20
4376;DHT22;2202;50.866;12.750;2023-05-29T08:03:57;19.70;49.30
4376;DHT22;2202;50.866;12.750;2023-05-29T08:06:23;20.00;47.00
4376;DHT22;2202;50.866;12.750;2023-05-29T08:08:50;20.20;47.30
4376;DHT22;2202;50.866;12.750;2023-05-29T08:11:18;20.10;47.20
4376;DHT22;2202;50.866;12.750;2023-05-29T08:13:45;20.00;48.40
4376;DHT22;2202;50.866;12.750;2023-05-29T08:16:12;20.00;47.20
4376;DHT22;2202;50.866;12.750;2023-05-29T08:18:42;20.00;45.60
4376;DHT22;2202;50.866;12.750;2023-05-29T08:21:10;20.10;45.40
4376;DHT22;2202;50.866;12.750;2023-05-29T08:23:38;20.40;50.20
4376;DHT22;2202;50.866;12.750;2023-05-29T08:26:05;21.00;47.30
4376;DHT22;2202;50.866;12.750;2023-05-29T08:28:33;21.30;43.40
4376;DHT22;2202;50.866;12.750;2023-05-29T08:30:59;21.40;43.80
4376;DHT22;2202;50.866;12.750;2023-05-29T08:33:26;20.60;47.00
4376;DHT22;2202;50.866;12.750;2023-05-29T08:35:53;20.60;47.90
4376;DHT22;2202;50.866;12.750;2023-05-29T08:38:22;20.40;48.80
4376;DHT22;2202;50.866;12.750;2023-05-29T08:40:51;20.20;45.60
4376;DHT22;2202;50.866;12.750;2023-05-29T08:43:21;20.40;50.30
4376;DHT22;2202;50.866;12.750;2023-05-29T08:45:54;20.90;44.10
4376;DHT22;2202;50.866;12.750;2023-05-29T08:48:23;21.10;47.00
4376;DHT22;2202;50.866;12.750;2023-05-29T08:50:53;21.10;41.10
4376;DHT22;2202;50.866;12.750;2023-05-29T08:53:22;21.10;45.00
4376;DHT22;2202;50.866;12.750;2023-05-29T08:55:51;21.20;40.90
4376;DHT22;2202;50.866;12.750;2023-05-29T08:58:19;21.30;44.80
4376;DHT22;2202;50.866;12.750;2023-05-29T09:00:48;21.20;40.60
4376;DHT22;2202;50.866;12.750;2023-05-29T09:03:15;21.20;42.50
4376;DHT22;2202;50.866;12.750;2023-05-29T09:05:44;21.60;41.70
4376;DHT22;2202;50.866;12.750;2023-05-29T09:08:12;21.60;40.80
4376;DHT22;2202;50.866;12.750;2023-05-29T09:10:42;21.50;41.30
4376;DHT22;2202;50.866;12.750;2023-05-29T09:13:09;21.20;45.90
4376;DHT22;2202;50.866;12.750;2023-05-29T09:15:37;21.60;45.20
4376;DHT22;2202;50.866;12.750;2023-05-29T09:18:06;22.10;44.10
4376;DHT22;2202;50.866;12.750;2023-05-29T09:20:34;21.80;43.80
4376;DHT22;2202;50.866;12.750;2023-05-29T09:23:02;21.40;43.40
4376;DHT22;2202;50.866;12.750;2023-05-29T09:25:31;21.50;41.50
4376;DHT22;2202;50.866;12.750;2023-05-29T09:28:01;21.70;36.00
4376;DHT22;2202;50.866;12.750;2023-05-29T09:30:37;21.90;39.70
4376;DHT22;2202;50.866;12.750;2023-05-29T09:33:05;22.00;42.40
4376;DHT22;2202;50.866;12.750;2023-05-29T09:35:38;22.20;44.00
4376;DHT22;2202;50.866;12.750;2023-05-29T09:38:05;22.50;44.70
4376;DHT22;2202;50.866;12.750;2023-05-29T09:40:33;22.70;36.50
4376;DHT22;2202;50.866;12.750;2023-05-29T09:43:09;22.90;37.00
4376;DHT22;2202;50.866;12.750;2023-05-29T09:45:37;22.90;33.10
4376;DHT22;2202;50.866;12.750;2023-05-29T09:48:06;23.00;34.20
4376;DHT22;2202;50.866;12.750;2023-05-29T09:50:34;23.00;33.70
4376;DHT22;2202;50.866;12.750;2023-05-29T09:53:01;23.20;36.50
4376;DHT22;2202;50.866;12.750;2023-05-29T09:55:30;23.40;33.50
4376;DHT22;2202;50.866;12.750;2023-05-29T09:57:59;23.10;33.30
4376;DHT22;2202;50.866;12.750;2023-05-29T10:00:28;22.70;36.90
4376;DHT22;2202;50.866;12.750;2023-05-29T10:02:56;22.30;34.90
4376;DHT22;2202;50.866;12.750;2023-05-29T10:05:24;22.40;36.90
4376;DHT22;2202;50.866;12.750;2023-05-29T10:07:54;22.70;35.40
4376;DHT22;2202;50.866;12.750;2023-05-29T10:10:21;22.90;35.40
4376;DHT22;2202;50.866;12.750;2023-05-29T10:12:53;23.10;34.00
4376;DHT22;2202;50.866;12.750;2023-05-29T10:15:23;22.90;36.50
4376;DHT22;2202;50.866;12.750;2023-05-29T10:17:59;23.00;33.30
4376;DHT22;2202;50.866;12.750;2023-05-29T10:20:28;23.00;33.70
4376;DHT22;2202;50.866;12.750;2023-05-29T10:22:57;22.90;35.60
4376;DHT22;2202;50.866;12.750;2023-05-29T10:25:27;22.50;38.80
4376;DHT22;2202;50.866;12.750;2023-05-29T10:27:56;22.50;35.30
4376;DHT22;2202;50.866;12.750;2023-05-29T10:30:29;22.60;37.20
4376;DHT22;2202;50.866;12.750;2023-05-29T10:33:20;22.60;32.40
4376;DHT22;2202;50.866;12.750;2023-05-29T10:35:55;22.30;33.10
4376;DHT22;2202;50.866;12.750;2023-05-29T10:38:25;22.30;39.20
4376;DHT22;2202;50.866;12.750;2023-05-29T10:40:52;22.60;37.60
4376;DHT22;2202;50.866;12.750;2023-05-29T10:43:30;22.70;33.30
4376;DHT22;2202;50.866;12.750;2023-05-29T10:45:58;22.90;35.10
4376;DHT22;2202;50.866;12.750;2023-05-29T10:48:42;22.70;36.10
4376;DHT22;2202;50.866;12.750;2023-05-29T10:51:24;22.90;34.20
4376;DHT22;2202;50.866;12.750;2023-05-29T10:53:51;23.20;36.10
4376;DHT22;2202;50.866;12.750;2023-05-29T10:56:21;23.30;34.60
4376;DHT22;2202;50.866;12.750;2023-05-29T10:58:54;22.60;33.50
4376;DHT22;2202;50.866;12.750;2023-05-29T11:01:21;22.80;35.40
4376;DHT22;2202;50.866;12.750;2023-05-29T11:03:50;22.90;32.20
4376;DHT22;2202;50.866;12.750;2023-05-29T11:06:18;22.90;31.40
4376;DHT22;2202;50.866;12.750;2023-05-29T11:08:46;23.20;33.30
4376;DHT22;2202;50.866;12.750;2023-05-29T11:11:14;23.00;37.40
4376;DHT22;2202;50.866;12.750;2023-05-29T11:13:41;23.20;35.80
4376;DHT22;2202;50.866;12.750;2023-05-29T11:16:35;23.00;33.80
4376;DHT22;2202;50.866;12.750;2023-05-29T11:19:05;22.80;33.10
4376;DHT22;2202;50.866;12.750;2023-05-29T11:21:34;22.40;36.10
4376;DHT22;2202;50.866;12.750;2023-05-29T11:24:07;22.40;34.70
4376;DHT22;2202;50.866;12.750;2023-05-29T11:26:36;22.40;36.70
4376;DHT22;2202;50.866;12.750;2023-05-29T11:29:04;22.60;36.70
4376;DHT22;2202;50.866;12.750;2023-05-29T11:31:32;23.00;35.30
4376;DHT22;2202;50.866;12.750;2023-05-29T11:34:02;23.10;31.70
4376;DHT22;2202;50.866;12.750;2023-05-29T11:36:33;22.90;31.20
4376;DHT22;2202;50.866;12.750;2023-05-29T11:39:00;22.50;33.00
4376;DHT22;2202;50.866;12.750;2023-05-29T11:41:29;22.20;34.00
4376;DHT22;2202;50.866;12.750;2023-05-29T11:43:57;22.00;32.60
4376;DHT22;2202;50.866;12.750;2023-05-29T11:46:24;21.60;37.90
4376;DHT22;2202;50.866;12.750;2023-05-29T11:48:52;21.80;38.10
4376;DHT22;2202;50.866;12.750;2023-05-29T11:51:19;22.00;36.10
4376;DHT22;2202;50.866;12.750;2023-05-29T11:53:49;22.40;36.30
4376;DHT22;2202;50.866;12.750;2023-05-29T11:56:18;22.60;36.10
4376;DHT22;2202;50.866;12.750;2023-05-29T11:58:46;22.60;33.30
4376;DHT22;2202;50.866;12.750;2023-05-29T12:01:17;22.50;34.20
4376;DHT22;2202;50.866;12.750;2023-05-29T12:03:44;22.20;34.20
4376;DHT22;2202;50.866;12.750;2023-05-29T12:06:12;22.00;33.80
4376;DHT22;2202;50.866;12.750;2023-05-29T12:08:39;22.20;34.90
4376;DHT22;2202;50.866;12.750;2023-05-29T12:11:08;22.60;33.10
4376;DHT22;2202;50.866;12.750;2023-05-29T12:13:35;23.00;32.20
4376;DHT22;2202;50.866;12.750;2023-05-29T12:16:05;23.50;32.20
4376;DHT22;2202;50.866;12.750;2023-05-29T12:18:32;23.90;31.90
4376;DHT22;2202;50.866;12.750;2023-05-29T12:21:00;24.40;36.50
4376;DHT22;2202;50.866;12.750;2023-05-29T12:23:28;24.60;33.50
4376;DHT22;2202;50.866;12.750;2023-05-29T12:25:55;24.60;29.30
4376;DHT22;2202;50.866;12.750;2023-05-29T12:28:23;24.10;29.80
4376;DHT22;2202;50.866;12.750;2023-05-29T12:30:50;23.60;29.60
4376;DHT22;2202;50.866;12.750;2023-05-29T12:33:29;23.20;29.40
4376;DHT22;2202;50.866;12.750;2023-05-29T12:36:02;23.00;32.60
4376;DHT22;2202;50.866;12.750;2023-05-29T12:38:29;23.10;33.00
4376;DHT22;2202;50.866;12.750;2023-05-29T12:40:56;23.50;29.70
4376;DHT22;2202;50.866;12.750;2023-05-29T12:43:24;23.80;30.10
4376;DHT22;2202;50.866;12.750;2023-05-29T12:45:54;24.00;29.00
4376;DHT22;2202;50.866;12.750;2023-05-29T12:48:26;24.10;29.20
4376;DHT22;2202;50.866;12.750;2023-05-29T12:50:53;24.50;28.90
4376;DHT22;2202;50.866;12.750;2023-05-29T12:53:20;24.20;29.30
4376;DHT22;2202;50.866;12.750;2023-05-29T12:55:47;24.10;27.90
4376;DHT22;2202;50.866;12.750;2023-05-29T12:58:14;23.70;28.80
4376;DHT22;2202;50.866;12.750;2023-05-29T13:00:44;23.30;29.40
4376;DHT22;2202;50.866;12.750;2023-05-29T13:03:11;23.10;29.90
4376;DHT22;2202;50.866;12.750;2023-05-29T13:05:38;23.10;33.80
4376;DHT22;2202;50.866;12.750;2023-05-29T13:08:06;23.20;31.90
4376;DHT22;2202;50.866;12.750;2023-05-29T13:10:34;23.10;33.30
4376;DHT22;2202;50.866;12.750;2023-05-29T13:13:01;23.30;33.50
4376;DHT22;2202;50.866;12.750;2023-05-29T13:15:28;23.00;33.30
4376;DHT22;2202;50.866;12.750;2023-05-29T13:17:59;23.00;31.90
4376;DHT22;2202;50.866;12.750;2023-05-29T13:20:26;23.40;29.80
4376;DHT22;2202;50.866;12.750;2023-05-29T13:22:53;23.70;29.10
4376;DHT22;2202;50.866;12.750;2023-05-29T13:25:20;23.60;29.60
4376;DHT22;2202;50.866;12.750;2023-05-29T13:27:49;23.50;31.50
4376;DHT22;2202;50.866;12.750;2023-05-29T13:30:16;23.80;29.50
4376;DHT22;2202;50.866;12.750;2023-05-29T13:32:43;24.00;28.60
4376;DHT22;2202;50.866;12.750;2023-05-29T13:35:12;24.00;31.20
4376;DHT22;2202;50.866;12.750;2023-05-29T13:37:39;23.70;29.50
4376;DHT22;2202;50.866;12.750;2023-05-29T13:40:07;23.30;29.90
4376;DHT22;2202;50.866;12.750;2023-05-29T13:42:35;23.30;31.50
4376;DHT22;2202;50.866;12.750;2023-05-29T13:45:03;23.30;30.80
4376;DHT22;2202;50.866;12.750;2023-05-29T13:47:31;23.10;30.80
4376;DHT22;2202;50.866;12.750;2023-05-29T13:49:58;23.10;30.80
4376;DHT22;2202;50.866;12.750;2023-05-29T13:52:27;23.00;31.70
4376;DHT22;2202;50.866;12.750;2023-05-29T13:54:54;22.80;30.30
4376;DHT22;2202;50.866;12.750;2023-05-29T13:57:21;22.80;29.60
4376;DHT22;2202;50.866;12.750;2023-05-29T13:59:47;22.90;31.20
4376;DHT22;2202;50.866;12.750;2023-05-29T14:02:14;23.30;36.30
4376;DHT22;2202;50.866;12.750;2023-05-29T14:04:42;23.80;27.90
4376;DHT22;2202;50.866;12.750;2023-05-29T14:07:09;24.10;27.90
4376;DHT22;2202;50.866;12.750;2023-05-29T14:09:37;24.20;27.20
4376;DHT22;2202;50.866;12.750;2023-05-29T14:12:04;24.00;26.80
4376;DHT22;2202;50.866;12.750;2023-05-29T14:14:32;24.00;27.80
4376;DHT22;2202;50.866;12.750;2023-05-29T14:16:59;23.60;28.90
4376;DHT22;2202;50.866;12.750;2023-05-29T14:19:26;23.70;31.00
4376;DHT22;2202;50.866;12.750;2023-05-29T14:21:53;23.90;27.50
4376;DHT22;2202;50.866;12.750;2023-05-29T14:24:20;23.90;30.80
4376;DHT22;2202;50.866;12.750;2023-05-29T14:26:48;24.00;28.80
4376;DHT22;2202;50.866;12.750;2023-05-29T14:29:16;24.20;29.90
4376;DHT22;2202;50.866;12.750;2023-05-29T14:31:43;24.50;27.90
4376;DHT22;2202;50.866;12.750;2023-05-29T14:34:11;24.60;28.30
4376;DHT22;2202;50.866;12.750;2023-05-29T14:36:39;24.50;29.30
4376;DHT22;2202;50.866;12.750;2023-05-29T14:39:06;24.10;28.00
4376;DHT22;2202;50.866;12.750;2023-05-29T14:41:33;23.70;28.50
4376;DHT22;2202;50.866;12.750;2023-05-29T14:44:02;23.40;28.30
4376;DHT22;2202;50.866;12.750;2023-05-29T14:46:29;23.20;28.90
4376;DHT22;2202;50.866;12.750;2023-05-29T14:48:58;23.10;29.80
4376;DHT22;2202;50.866;12.750;2023-05-29T14:51:25;23.00;29.00
4376;DHT22;2202;50.866;12.750;2023-05-29T14:53:51;23.10;30.30
4376;DHT22;2202;50.866;12.750;2023-05-29T14:56:18;22.90;29.00
4376;DHT22;2202;50.866;12.750;2023-05-29T14:58:45;22.90;30.50
4376;DHT22;2202;50.866;12.750;2023-05-29T15:01:15;22.80;31.50
4376;DHT22;2202;50.866;12.750;2023-05-29T15:03:42;22.80;30.10
4376;DHT22;2202;50.866;12.750;2023-05-29T15:06:09;22.70;33.70
4376;DHT22;2202;50.866;12.750;2023-05-29T15:08:37;22.60;34.40
4376;DHT22;2202;50.866;12.750;2023-05-29T15:11:05;22.40;37.00
4376;DHT22;2202;50.866;12.750;2023-05-29T15:13:32;22.30;34.00
4376;DHT22;2202;50.866;12.750;2023-05-29T15:15:59;22.20;34.70
4376;DHT22;2202;50.866;12.750;2023-05-29T15:18:27;22.20;34.60
4376;DHT22;2202;50.866;12.750;2023-05-29T15:20:54;22.20;34.40
4376;DHT22;2202;50.866;12.750;2023-05-29T15:23:21;22.30;34.40
4376;DHT22;2202;50.866;12.750;2023-05-29T15:25:49;21.80;35.10
4376;DHT22;2202;50.866;12.750;2023-05-29T15:28:16;21.70;38.10
4376;DHT22;2202;50.866;12.750;2023-05-29T15:30:43;21.80;36.30
4376;DHT22;2202;50.866;12.750;2023-05-29T15:33:10;22.00;36.10
4376;DHT22;2202;50.866;12.750;2023-05-29T15:35:39;22.20;35.40
4376;DHT22;2202;50.866;12.750;2023-05-29T15:38:07;22.30;34.20
4376;DHT22;2202;50.866;12.750;2023-05-29T15:40:34;22.40;34.60
4376;DHT22;2202;50.866;12.750;2023-05-29T15:43:00;22.50;33.70
4376;DHT22;2202;50.866;12.750;2023-05-29T15:45:27;22.50;33.80
4376;DHT22;2202;50.866;12.750;2023-05-29T15:47:55;22.50;32.20
4376;DHT22;2202;50.866;12.750;2023-05-29T15:50:21;22.40;31.90
4376;DHT22;2202;50.866;12.750;2023-05-29T15:52:50;22.30;33.80
4376;DHT22;2202;50.866;12.750;2023-05-29T15:55:17;22.20;33.00
4376;DHT22;2202;50.866;12.750;2023-05-29T15:57:44;22.40;35.30